Time;durP1;ratioP1;P1;durP2;ratioP2;P2;SDS_P1;SDS_P2;PMS_P1;PMS_P2;Temp;Humidity;BMP_temperature;BMP_pressure;BME280_temperature;BME280_humidity;BME280_pressure;Samples;Min_cycle;Max_cycle;Signal;HPM_P1;HPM_P2
2021/04/24 00:02:18;;;;;;;23.67;11.43;;;;;;;7.42;57.48;101107.76;2186183;80;29623;-60
2021/04/24 00:05:33;;;;;;;23.65;9.90;;;;;;;7.36;57.31;101103.92;2210316;80;27697;-62
2021/04/24 00:08:37;;;;;;;23.70;11.17;;;;;;;7.32;57.03;101106.23;2208265;80;29756;-60
2021/04/24 00:11:39;;;;;;;18.57;9.90;;;;;;;7.26;57.11;101097.92;2207329;80;30933;-59
2021/04/24 00:14:41;;;;;;;17.55;8.60;;;;;;;7.24;57.20;101104.60;2196061;80;33154;-58
2021/04/24 00:17:44;;;;;;;18.85;7.97;;;;;;;7.21;56.76;101099.80;2169569;82;29231;-58
2021/04/24 00:20:46;;;;;;;15.65;7.50;;;;;;;7.18;56.56;101102.09;2169786;82;27698;-59
2021/04/24 00:23:48;;;;;;;18.02;7.28;;;;;;;7.15;56.39;101099.50;2169411;80;28845;-58
2021/04/24 00:26:51;;;;;;;16.40;7.12;;;;;;;7.12;56.27;101104.41;2168513;82;31598;-64
2021/04/24 00:29:54;;;;;;;13.13;6.97;;;;;;;7.10;56.36;101099.61;2169637;82;33203;-59
2021/04/24 00:32:56;;;;;;;20.15;7.72;;;;;;;7.09;56.26;101101.84;2169737;80;31471;-59
2021/04/24 00:35:59;;;;;;;21.00;7.90;;;;;;;7.08;55.90;101099.20;2169340;82;27714;-59
2021/04/24 00:39:01;;;;;;;13.05;6.62;;;;;;;7.06;56.15;101098.35;2169324;82;28827;-60
2021/04/24 00:42:04;;;;;;;15.30;7.62;;;;;;;7.04;56.58;101099.73;2169204;80;31225;-59
2021/04/24 00:45:11;;;;;;;17.05;7.25;;;;;;;7.01;56.73;101093.60;2170210;80;33200;-61
2021/04/24 00:48:14;;;;;;;16.82;7.05;;;;;;;6.99;57.07;101093.61;2169722;82;29155;-60
2021/04/24 00:51:16;;;;;;;18.20;7.50;;;;;;;6.97;57.27;101089.67;2169763;82;28193;-63
2021/04/24 00:54:19;;;;;;;20.82;7.22;;;;;;;6.96;57.22;101093.67;2181703;80;28823;-58
2021/04/24 00:57:22;;;;;;;11.53;6.67;;;;;;;6.92;57.56;101091.55;2168901;82;32496;-61
2021/04/24 01:00:24;;;;;;;15.05;7.08;;;;;;;6.90;57.46;101091.17;2161655;82;34533;-60
2021/04/24 01:03:27;;;;;;;16.05;7.85;;;;;;;6.86;57.60;101083.70;2161920;80;29171;-57
2021/04/24 01:06:29;;;;;;;20.82;8.60;;;;;;;6.83;57.69;101079.30;2167150;82;27607;-58
2021/04/24 01:09:32;;;;;;;13.38;7.58;;;;;;;6.82;57.78;101079.34;2167116;82;29247;-58
2021/04/24 01:12:34;;;;;;;17.75;8.28;;;;;;;6.80;58.13;101074.50;2163398;82;31157;-58
2021/04/24 01:15:37;;;;;;;19.82;8.45;;;;;;;6.76;58.17;101072.38;2128153;83;35601;-58
2021/04/24 01:18:39;;;;;;;17.60;7.83;;;;;;;6.74;58.14;101079.95;2128339;83;29347;-58
2021/04/24 01:21:42;;;;;;;22.42;8.80;;;;;;;6.69;58.44;101070.73;2128290;83;27680;-62
2021/04/24 01:24:45;;;;;;;19.92;9.65;;;;;;;6.65;58.81;101077.92;2184792;80;31188;-60
2021/04/24 01:27:50;;;;;;;21.87;9.83;;;;;;;6.61;58.86;101075.36;2135263;82;32565;-61
2021/04/24 01:30:52;;;;;;;25.75;10.15;;;;;;;6.57;58.68;101069.20;2128281;82;33176;-61
2021/04/24 01:33:55;;;;;;;26.52;10.50;;;;;;;6.57;58.89;101072.33;2149912;80;30350;-59
2021/04/24 01:37:02;;;;;;;32.35;12.53;;;;;;;6.57;58.82;101069.67;2166814;82;27701;-58
2021/04/24 01:40:07;;;;;;;26.57;12.88;;;;;;;6.60;58.99;101068.28;2166940;82;28903;-58
2021/04/24 01:43:10;;;;;;;29.07;12.18;;;;;;;6.59;59.01;101063.86;2164238;80;32094;-59
2021/04/24 01:46:12;;;;;;;28.73;12.95;;;;;;;6.60;59.19;101056.30;2128240;83;33175;-58
2021/04/24 01:49:15;;;;;;;24.52;11.45;;;;;;;6.63;59.23;101061.53;2128082;83;29237;-62
2021/04/24 01:52:18;;;;;;;24.55;12.35;;;;;;;6.63;59.20;101056.20;2128324;83;27780;-58
2021/04/24 01:55:30;;;;;;;19.87;10.85;;;;;;;6.62;59.28;101057.14;2166631;82;30262;-63
2021/04/24 01:58:33;;;;;;;19.50;10.98;;;;;;;6.60;59.30;101053.16;2179888;81;32163;-58
2021/04/24 02:01:35;;;;;;;25.37;11.83;;;;;;;6.59;59.33;101053.21;2195331;80;34002;-59
2021/04/24 02:04:39;;;;;;;25.52;11.08;;;;;;;6.57;59.34;101056.36;2178013;80;29927;-60
2021/04/24 02:07:41;;;;;;;28.05;12.03;;;;;;;6.52;59.28;101054.66;2169368;82;27662;-58
2021/04/24 02:10:48;;;;;;;25.37;11.80;;;;;;;6.48;59.57;101054.29;2173131;81;29758;-58
2021/04/24 02:13:51;;;;;;;27.60;13.10;;;;;;;6.45;59.44;101053.48;2172949;80;31162;-66
2021/04/24 02:16:56;;;;;;;23.20;12.45;;;;;;;6.41;59.25;101054.45;2169878;82;33121;-61
2021/04/24 02:19:59;;;;;;;25.97;12.82;;;;;;;6.36;59.66;101047.45;2169619;82;29173;-59
2021/04/24 02:23:01;;;;;;;30.32;12.50;;;;;;;6.33;59.73;101049.28;2169399;80;27737;-64
2021/04/24 02:26:06;;;;;;;23.50;12.05;;;;;;;6.30;59.75;101051.99;2169775;80;27909;-62
2021/04/24 02:29:09;;;;;;;22.58;11.40;;;;;;;6.25;59.77;101054.75;2169364;82;31188;-59
2021/04/24 02:32:14;;;;;;;25.35;12.00;;;;;;;6.21;59.88;101048.62;2169263;81;33583;-58
2021/04/24 02:35:36;;;;;;;27.17;11.90;;;;;;;6.18;60.08;101042.02;2169695;81;36703;-58
2021/04/24 02:38:39;;;;;;;28.87;13.65;;;;;;;6.15;60.15;101039.42;2186934;80;28234;-57
2021/04/24 02:41:42;;;;;;;31.68;13.98;;;;;;;6.11;60.22;101039.52;2205196;80;28878;-62
2021/04/24 02:44:45;;;;;;;24.85;12.40;;;;;;;6.07;60.25;101042.22;2179341;80;32021;-57
2021/04/24 02:47:48;;;;;;;31.20;12.30;;;;;;;6.03;60.42;101032.58;2169355;82;33129;-59
2021/04/24 02:50:50;;;;;;;30.48;12.63;;;;;;;6.02;60.50;101029.92;2169308;82;29028;-57
2021/04/24 02:53:52;;;;;;;25.10;12.05;;;;;;;5.99;60.52;101027.28;2169456;82;27842;-59
2021/04/24 02:56:55;;;;;;;21.70;10.10;;;;;;;5.98;60.72;101032.17;2169680;82;29316;-57
2021/04/24 02:59:57;;;;;;;17.90;9.35;;;;;;;5.94;60.85;101028.70;2169531;80;31588;-58
2021/04/24 03:03:09;;;;;;;25.12;9.40;;;;;;;5.93;60.95;101027.84;2171593;80;33215;-58
2021/04/24 03:06:11;;;;;;;25.43;10.43;;;;;;;5.95;60.91;101021.16;2209418;80;29167;-59
2021/04/24 03:09:15;;;;;;;25.10;10.43;;;;;;;5.99;61.06;101029.51;2214982;80;28168;-58
2021/04/24 03:12:17;;;;;;;24.52;10.15;;;;;;;6.00;61.09;101027.31;2214911;80;28896;-59
2021/04/24 03:15:21;;;;;;;25.15;10.98;;;;;;;6.02;61.20;101029.48;2175616;80;30413;-59
2021/04/24 03:18:23;;;;;;;33.90;11.68;;;;;;;6.03;61.23;101026.36;2170751;82;33940;-59
2021/04/24 03:21:28;;;;;;;25.90;11.73;;;;;;;6.02;61.14;101026.83;2170006;82;29179;-58
2021/04/24 03:24:30;;;;;;;30.02;12.23;;;;;;;6.01;60.94;101030.83;2169455;82;27657;-69
2021/04/24 03:27:32;;;;;;;25.10;11.28;;;;;;;5.98;61.06;101029.08;2169365;80;29851;-58
2021/04/24 03:30:35;;;;;;;28.07;11.70;;;;;;;5.97;60.88;101031.75;2169583;80;31238;-62
2021/04/24 03:33:38;;;;;;;23.22;11.93;;;;;;;5.94;61.20;101035.36;2170260;80;33972;-63
2021/04/24 03:36:41;;;;;;;26.37;14.00;;;;;;;5.91;61.21;101034.97;2169824;82;30393;-59
2021/04/24 03:39:44;;;;;;;24.50;12.90;;;;;;;5.88;61.02;101028.81;2169903;81;28250;-66
2021/04/24 03:42:46;;;;;;;23.92;13.15;;;;;;;5.85;61.02;101042.19;2169614;82;29332;-59
2021/04/24 03:45:48;;;;;;;23.45;12.23;;;;;;;5.83;61.27;101045.32;2207158;80;32042;-63
2021/04/24 03:48:51;;;;;;;27.55;11.43;;;;;;;5.82;61.43;101048.88;2206246;80;33168;-60
2021/04/24 03:51:53;;;;;;;27.00;12.68;;;;;;;5.79;61.46;101055.14;2162322;82;29168;-64
2021/04/24 03:54:55;;;;;;;25.88;11.48;;;;;;;5.77;61.60;101048.50;2166749;82;27661;-58
2021/04/24 03:58:00;;;;;;;22.98;11.30;;;;;;;5.77;61.70;101052.96;2169834;82;28795;-58
2021/04/24 04:01:02;;;;;;;23.50;11.45;;;;;;;5.76;61.92;101053.86;2169842;82;31211;-58
2021/04/24 04:04:06;;;;;;;26.12;11.83;;;;;;;5.75;62.03;101050.31;2169710;81;33160;-70
2021/04/24 04:07:08;;;;;;;22.00;11.38;;;;;;;5.76;62.08;101051.20;2169812;81;29113;-60
2021/04/24 04:10:13;;;;;;;29.60;12.20;;;;;;;5.77;62.15;101056.95;2186326;80;27614;-61
2021/04/24 04:13:15;;;;;;;25.62;11.08;;;;;;;5.78;62.30;101046.27;2208239;80;29796;-57
2021/04/24 04:16:18;;;;;;;30.55;10.60;;;;;;;5.79;62.47;101045.84;2197419;80;31224;-59
2021/04/24 04:19:20;;;;;;;22.95;10.75;;;;;;;5.91;62.55;101059.34;2169790;81;33122;-59
2021/04/24 04:22:23;;;;;;;25.88;10.95;;;;;;;6.01;62.60;101054.77;2178398;80;29247;-65
2021/04/24 04:25:26;;;;;;;23.27;10.75;;;;;;;6.14;62.64;101042.98;2208633;80;27645;-60
2021/04/24 04:28:28;;;;;;;24.25;11.15;;;;;;;6.30;63.05;101045.34;2172671;80;28835;-64
2021/04/24 04:31:31;;;;;;;20.10;10.25;;;;;;;6.45;62.81;101033.52;2169514;80;31077;-68
2021/04/24 04:34:33;;;;;;;22.00;10.23;;;;;;;6.61;62.65;101039.42;2174385;80;34473;-59
2021/04/24 04:37:38;;;;;;;23.47;11.20;;;;;;;6.79;62.57;101039.45;2202607;80;36743;-60
2021/04/24 04:40:42;;;;;;;25.20;10.95;;;;;;;6.98;62.53;101035.92;2176340;81;27720;-60
2021/04/24 04:43:44;;;;;;;21.12;9.95;;;;;;;7.15;62.35;101042.20;2176260;81;28826;-59
2021/04/24 04:46:46;;;;;;;20.92;10.72;;;;;;;7.35;62.03;101041.72;2170413;81;32147;-60
2021/04/24 04:49:48;;;;;;;20.52;10.18;;;;;;;7.66;61.91;101043.62;2206662;80;33134;-59
2021/04/24 04:52:51;;;;;;;21.48;10.18;;;;;;;8.15;61.79;101042.79;2208021;80;30144;-63
2021/04/24 04:55:53;;;;;;;19.12;9.48;;;;;;;8.67;61.25;101042.25;2207191;80;28132;-62
2021/04/24 04:58:56;;;;;;;21.35;10.18;;;;;;;9.19;60.55;101042.88;2208093;80;29224;-61
2021/04/24 05:01:59;;;;;;;19.20;9.40;;;;;;;9.56;60.06;101037.22;2208041;80;30981;-59
2021/04/24 05:05:03;;;;;;;20.10;9.23;;;;;;;10.11;59.62;101031.34;2185106;80;34526;-59
2021/04/24 05:08:05;;;;;;;24.45;10.53;;;;;;;10.72;59.02;101028.66;2169698;82;29143;-66
2021/04/24 05:11:08;;;;;;;19.42;8.53;;;;;;;11.35;58.11;101027.51;2169894;82;27685;-59
2021/04/24 05:14:10;;;;;;;22.37;10.20;;;;;;;11.83;56.51;101028.65;2170344;80;29034;-60
2021/04/24 05:17:13;;;;;;;17.37;9.80;;;;;;;12.36;56.43;101029.06;2169768;82;31112;-60
2021/04/24 05:20:16;;;;;;;20.30;10.20;;;;;;;12.77;55.91;101020.88;2169653;82;33083;-62
2021/04/24 05:23:19;;;;;;;17.00;9.33;;;;;;;13.16;54.92;101023.95;2148701;80;29172;-63
2021/04/24 05:26:21;;;;;;;20.10;9.08;;;;;;;13.55;54.37;101028.81;2168977;82;27969;-62
2021/04/24 05:29:24;;;;;;;19.80;8.53;;;;;;;13.88;53.59;101023.13;2169434;82;28823;-61
2021/04/24 05:32:27;;;;;;;18.75;8.65;;;;;;;14.08;52.85;101022.08;2169409;82;31157;-67
2021/04/24 05:35:29;;;;;;;14.40;7.95;;;;;;;13.99;51.90;101020.73;2169371;82;33764;-63
2021/04/24 05:38:32;;;;;;;17.80;8.65;;;;;;;13.82;51.15;101022.48;2186241;80;29006;-72
2021/04/24 05:41:35;;;;;;;14.78;7.97;;;;;;;13.61;51.06;101023.58;2205943;80;27721;-68
2021/04/24 05:44:40;;;;;;;15.48;8.50;;;;;;;13.45;51.30;101023.01;2191004;80;28811;-62
2021/04/24 05:47:46;;;;;;;16.55;8.73;;;;;;;13.59;50.49;101031.75;2185653;80;32086;-62
2021/04/24 05:50:49;;;;;;;19.50;7.60;;;;;;;13.61;50.54;101028.51;2208091;80;33189;-59
2021/04/24 05:53:53;;;;;;;18.95;8.25;;;;;;;13.54;49.95;101037.83;2205078;80;30284;-64
2021/04/24 05:56:55;;;;;;;15.72;7.67;;;;;;;13.40;49.56;101028.20;2169480;82;27647;-58
2021/04/24 06:00:09;;;;;;;16.52;7.75;;;;;;;13.22;49.77;101027.70;2169323;82;29323;-59
2021/04/24 06:03:12;;;;;;;15.35;7.70;;;;;;;13.30;49.76;101027.33;2168519;82;31138;-63
2021/04/24 06:06:15;;;;;;;24.40;8.45;;;;;;;13.46;49.91;101026.59;2130380;83;33133;-59
2021/04/24 06:09:17;;;;;;;18.40;9.10;;;;;;;13.49;49.54;101025.95;2129675;83;29382;-71
2021/04/24 06:12:19;;;;;;;25.37;9.35;;;;;;;13.48;49.15;101030.08;2137228;83;27689;-69
2021/04/24 06:15:23;;;;;;;14.05;8.03;;;;;;;13.44;48.77;101025.80;2119448;83;31099;-63
2021/04/24 06:18:27;;;;;;;14.23;7.50;;;;;;;13.51;48.77;101029.90;2105295;84;31149;-65
2021/04/24 06:21:29;;;;;;;17.50;9.10;;;;;;;13.82;48.58;101029.22;2106101;84;34492;-61
2021/04/24 06:24:31;;;;;;;18.32;7.75;;;;;;;13.93;48.01;101029.13;2119096;83;29164;-62
2021/04/24 06:27:36;;;;;;;17.05;8.53;;;;;;;13.99;47.64;101028.82;2144364;83;27708;-62
2021/04/24 06:30:39;;;;;;;18.10;7.12;;;;;;;14.37;47.53;101030.42;2144196;83;28892;-69
2021/04/24 06:33:41;;;;;;;15.72;7.40;;;;;;;14.97;47.18;101027.66;2142332;81;31164;-60
2021/04/24 06:36:44;;;;;;;13.72;6.72;;;;;;;15.68;46.25;101026.23;2120038;81;34052;-62
2021/04/24 06:39:46;;;;;;;15.40;7.42;;;;;;;15.95;45.60;101018.34;2106132;84;29276;-78
2021/04/24 06:42:49;;;;;;;12.90;6.60;;;;;;;16.05;45.09;101027.25;2106112;83;27615;-62
2021/04/24 06:45:51;;;;;;;16.60;6.50;;;;;;;16.20;44.90;101024.96;2135401;83;29732;-68
2021/04/24 06:48:54;;;;;;;15.35;6.25;;;;;;;16.06;44.10;101028.50;2144251;83;31805;-61
2021/04/24 06:51:56;;;;;;;10.38;5.95;;;;;;;15.90;43.72;101024.99;2144049;83;33076;-61
2021/04/24 06:55:00;;;;;;;14.60;7.03;;;;;;;15.93;44.12;101027.52;2126108;82;30325;-61
2021/04/24 06:58:03;;;;;;;14.38;6.95;;;;;;;15.98;43.77;101012.36;2106157;83;27585;-62
2021/04/24 07:01:05;;;;;;;11.03;5.40;;;;;;;16.27;42.94;101013.75;2106109;84;29784;-65
2021/04/24 07:04:08;;;;;;;15.15;5.65;;;;;;;16.46;43.25;101014.34;2120230;81;31042;-60
2021/04/24 07:07:11;;;;;;;16.00;6.35;;;;;;;16.69;43.22;101006.11;2169289;82;34048;-65
2021/04/24 07:10:14;;;;;;;9.98;5.62;;;;;;;16.94;42.18;101003.64;2169221;80;29181;-61
2021/04/24 07:13:16;;;;;;;9.98;4.92;;;;;;;17.17;41.99;101006.22;2169833;82;27690;-70
2021/04/24 07:16:18;;;;;;;11.78;6.10;;;;;;;17.48;41.54;101000.61;2203183;80;29023;-68
2021/04/24 07:19:21;;;;;;;10.72;4.95;;;;;;;17.81;40.52;100996.56;2208153;80;31271;-67
2021/04/24 07:22:23;;;;;;;10.40;6.33;;;;;;;18.28;40.99;101001.88;2198287;80;33957;-70
2021/04/24 07:25:25;;;;;;;6.90;3.83;;;;;;;18.59;39.59;100994.75;2169407;81;29226;-70
2021/04/24 07:28:27;;;;;;;5.50;3.65;;;;;;;18.82;38.60;100993.06;2178245;80;27718;-71
2021/04/24 07:31:29;;;;;;;7.55;4.28;;;;;;;18.96;38.25;100994.78;2207974;80;28806;-67
2021/04/24 07:34:32;;;;;;;7.97;4.00;;;;;;;19.07;37.92;100996.22;2181386;80;31121;-67
2021/04/24 07:37:35;;;;;;;8.90;4.70;;;;;;;19.32;36.81;100990.29;2175782;81;33190;-67
2021/04/24 07:40:38;;;;;;;8.03;3.92;;;;;;;19.67;36.85;100996.75;2175653;81;29150;-65
2021/04/24 07:43:41;;;;;;;7.85;3.92;;;;;;;19.94;36.12;100994.25;2169310;81;27720;-68
2021/04/24 07:46:44;;;;;;;6.62;5.40;;;;;;;20.22;36.25;100997.03;2155948;82;28796;-67
2021/04/24 07:49:46;;;;;;;6.28;3.52;;;;;;;20.52;35.14;100996.06;2158528;80;31145;-68
2021/04/24 07:52:48;;;;;;;9.10;4.17;;;;;;;20.83;34.42;101001.25;2159941;82;33131;-67
2021/04/24 07:55:50;;;;;;;7.25;2.58;;;;;;;21.21;33.92;100994.48;2155186;82;29234;-68
2021/04/24 07:58:54;;;;;;;8.43;3.13;;;;;;;21.60;33.82;100995.80;2155615;82;27764;-74
2021/04/24 08:01:56;;;;;;;8.13;3.50;;;;;;;21.98;33.82;100995.28;2160550;82;29765;-67
2021/04/24 08:04:58;;;;;;;7.83;2.92;;;;;;;21.81;32.12;100994.00;2159542;81;31122;-77
2021/04/24 08:08:01;;;;;;;10.78;3.40;;;;;;;21.78;30.76;100994.78;2176306;81;33501;-72
2021/04/24 08:11:03;;;;;;;4.60;2.75;;;;;;;21.70;32.15;100992.70;2173881;81;29373;-68
2021/04/24 08:14:05;;;;;;;6.37;3.00;;;;;;;21.91;31.20;100991.34;2137124;83;27621;-70
2021/04/24 08:17:07;;;;;;;8.08;2.72;;;;;;;21.95;31.27;100990.09;2137251;83;28886;-69
2021/04/24 08:20:12;;;;;;;5.42;2.95;;;;;;;21.67;30.58;100993.85;2137683;81;32127;-71
2021/04/24 08:23:16;;;;;;;;;;;;;;;21.51;30.86;100996.13;2146505;83;33125;-65
2021/04/24 08:26:18;;;;;;;4.65;2.67;;;;;;;21.65;30.26;100994.47;2143875;83;30108;-74
2021/04/24 08:29:22;;;;;;;5.95;2.75;;;;;;;21.77;29.75;100991.16;2143703;83;27911;-67
2021/04/24 08:32:24;;;;;;;6.62;2.65;;;;;;;21.90;30.01;100986.03;2171847;81;28825;-68
2021/04/24 08:35:26;;;;;;;4.55;3.20;;;;;;;22.14;29.17;100981.66;2176180;81;31157;-66
2021/04/24 08:38:29;;;;;;;7.10;3.95;;;;;;;22.04;29.53;100987.05;2175587;81;33136;-66
2021/04/24 08:41:32;;;;;;;7.85;3.25;;;;;;;21.69;29.07;100986.89;2154791;81;29175;-64
2021/04/24 08:44:36;;;;;;;7.10;3.02;;;;;;;21.51;29.44;100989.31;2144496;83;27882;-66
2021/04/24 08:47:48;;;;;;;4.45;2.35;;;;;;;21.36;28.53;100984.13;2143491;83;28820;-69
2021/04/24 08:50:51;;;;;;;6.92;2.80;;;;;;;21.22;29.07;100977.14;2162179;81;31160;-66
2021/04/24 08:53:53;;;;;;;6.80;3.25;;;;;;;20.88;29.26;100986.77;2137034;83;33051;-69
2021/04/24 08:56:56;;;;;;;6.20;2.70;;;;;;;20.60;28.97;100982.68;2106534;83;28995;-70
2021/04/24 08:59:58;;;;;;;12.68;3.15;;;;;;;20.23;29.30;100978.83;2160151;81;27310;-72
2021/04/24 09:03:01;;;;;;;9.43;3.00;;;;;;;20.15;29.39;100978.97;2151433;81;28875;-65
2021/04/24 09:06:04;;;;;;;10.48;3.58;;;;;;;20.15;29.54;100976.25;2122069;81;31368;-67
2021/04/24 09:09:10;;;;;;;7.10;2.70;;;;;;;20.04;28.50;100981.65;2171796;80;33960;-66
2021/04/24 09:12:12;;;;;;;6.87;3.25;;;;;;;19.85;28.80;100972.22;2145763;81;29324;-64
2021/04/24 09:15:23;;;;;;;4.67;2.20;;;;;;;19.72;29.31;100964.62;2171692;80;27849;-66
2021/04/24 09:18:27;;;;;;;5.87;2.65;;;;;;;19.54;28.57;100973.72;2145158;81;28822;-64
2021/04/24 09:21:31;;;;;;;6.05;2.90;;;;;;;19.29;29.19;100967.42;2179014;80;31168;-66
2021/04/24 09:24:36;;;;;;;9.13;3.05;;;;;;;19.19;29.64;100967.76;2143822;81;33132;-63
2021/04/24 09:27:47;;;;;;;5.35;2.62;;;;;;;19.22;28.71;100968.38;2146632;81;30039;-65
2021/04/24 09:30:52;;;;;;;7.00;2.95;;;;;;;19.13;29.48;100959.59;2144358;81;27750;-65
2021/04/24 09:34:02;;;;;;;7.08;2.67;;;;;;;18.98;28.97;100957.52;2131070;81;28826;-65
2021/04/24 09:37:15;;;;;;;11.97;2.77;;;;;;;18.78;28.98;100960.34;2113785;82;31158;-64
2021/04/24 09:40:28;;;;;;;6.37;3.40;;;;;;;18.68;29.20;100953.36;2250821;76;32791;-66
2021/04/24 09:43:57;;;;;;;8.30;2.90;;;;;;;18.84;28.93;100950.39;2233614;77;28269;-64
2021/04/24 09:46:59;;;;;;;4.62;2.80;;;;;;;18.91;29.50;100956.23;2236668;77;30205;-64
2021/04/24 09:50:09;;;;;;;7.80;3.83;;;;;;;18.89;29.86;100941.39;2233104;78;31123;-68
2021/04/24 09:53:22;;;;;;;6.97;3.15;;;;;;;18.81;29.13;100938.39;2231935;78;33060;-65
2021/04/24 09:56:26;;;;;;;6.25;3.40;;;;;;;18.63;29.31;100944.20;2227343;78;28544;-65
2021/04/24 09:59:29;;;;;;;9.18;3.92;;;;;;;18.50;29.26;100945.58;2236807;78;27898;-67
2021/04/24 10:02:44;;;;;;;7.85;3.72;;;;;;;18.22;29.47;100938.57;2236620;78;28852;-67
2021/04/24 10:05:48;;;;;;;8.83;4.30;;;;;;;17.85;29.30;100943.38;2232462;78;31192;-68
2021/04/24 10:08:52;;;;;;;10.50;3.37;;;;;;;17.50;29.72;100939.06;2234288;78;34040;-70
2021/04/24 10:12:09;;;;;;;10.85;3.75;;;;;;;17.30;29.94;100946.70;2194017;78;29809;-66
2021/04/24 10:15:17;;;;;;;6.35;3.85;;;;;;;17.26;30.28;100943.81;2231604;78;28230;-72
2021/04/24 10:18:19;;;;;;;8.85;3.45;;;;;;;17.24;30.30;100937.63;2201283;78;28702;-72
2021/04/24 10:21:21;;;;;;;8.23;3.17;;;;;;;17.22;30.71;100933.69;2235409;77;31143;-64
2021/04/24 10:24:27;;;;;;;8.43;3.77;;;;;;;17.27;30.69;100930.19;2245942;78;33117;-65
2021/04/24 10:27:29;;;;;;;10.53;4.92;;;;;;;17.24;30.01;100927.69;2225182;78;29837;-64
2021/04/24 10:30:31;;;;;;;7.05;4.40;;;;;;;17.16;29.93;100925.50;2200658;78;27714;-65
2021/04/24 10:33:34;;;;;;;8.10;4.40;;;;;;;17.17;30.46;100923.64;2230228;77;27637;-66
2021/04/24 10:36:38;;;;;;;7.65;4.45;;;;;;;17.26;30.74;100913.56;2223306;78;31138;-65
2021/04/24 10:39:41;;;;;;;6.80;4.27;;;;;;;17.48;31.12;100912.56;2247334;78;33060;-63
2021/04/24 10:42:47;;;;;;;6.87;3.98;;;;;;;17.62;30.71;100904.34;2245183;78;28837;-65
2021/04/24 10:45:49;;;;;;;7.97;4.42;;;;;;;17.43;30.14;100866.84;2234684;78;27737;-66
2021/04/24 10:49:27;;;;;;;7.50;4.42;;;;;;;17.69;30.39;100906.14;2236857;78;29372;-65
2021/04/24 10:52:32;;;;;;;8.98;4.20;;;;;;;17.49;30.55;100887.22;2225244;78;31141;-64
2021/04/24 10:55:40;;;;;;;7.28;4.45;;;;;;;17.69;30.99;100898.00;2225014;78;33107;-66
2021/04/24 10:58:44;;;;;;;5.75;3.92;;;;;;;17.81;30.42;100889.50;2230469;78;28907;-65
2021/04/24 11:02:07;;;;;;;7.17;3.70;;;;;;;17.81;30.42;100889.50;2231526;78;27730;-64
2021/04/24 11:05:26;;;;;;;6.40;3.65;;;;;;;17.69;30.07;100858.72;2236702;78;28737;-64
2021/04/24 11:08:28;;;;;;;7.28;3.87;;;;;;;17.89;30.22;100889.34;2225926;78;31680;-62
2021/04/24 11:11:31;;;;;;;11.00;4.45;;;;;;;17.93;30.49;100892.69;2242823;78;33170;-64
2021/04/24 11:14:34;;;;;;;9.43;3.70;;;;;;;17.94;30.32;100891.72;2243187;78;29309;-64
2021/04/24 11:17:38;;;;;;;6.75;3.77;;;;;;;17.85;29.91;100888.32;2186558;78;27794;-65
2021/04/24 11:21:08;;;;;;;10.20;5.22;;;;;;;17.73;30.10;100885.98;2247150;78;28802;-64
2021/04/24 11:24:16;;;;;;;8.25;4.35;;;;;;;17.64;30.18;100897.45;2242954;78;31235;-63
2021/04/24 11:27:18;;;;;;;9.85;4.70;;;;;;;17.55;30.06;100886.30;2239009;78;33055;-62
2021/04/24 11:31:04;;;;;;;6.65;4.87;;;;;;;17.51;30.22;100889.33;2232227;78;28868;-63
2021/04/24 11:34:28;;;;;;;7.20;4.15;;;;;;;17.51;30.54;100882.56;2243487;78;28233;-64
2021/04/24 11:37:32;;;;;;;7.22;4.50;;;;;;;17.60;30.74;100883.26;2235283;78;28814;-63
2021/04/24 11:40:34;;;;;;;10.43;4.85;;;;;;;17.68;30.36;100875.48;2240269;78;32082;-64
2021/04/24 11:43:36;;;;;;;7.83;4.05;;;;;;;17.69;30.22;100874.97;2244951;78;33640;-65
2021/04/24 11:46:39;;;;;;;6.95;4.40;;;;;;;17.67;31.06;100875.56;2246308;77;29634;-64
2021/04/24 11:49:51;;;;;;;10.78;5.25;;;;;;;17.60;30.87;100861.11;2238581;78;28169;-65
2021/04/24 11:52:57;;;;;;;8.78;4.97;;;;;;;17.60;30.87;100861.11;2231251;78;30158;-65
2021/04/24 11:55:59;;;;;;;34.80;19.75;;;;;;;17.75;31.02;100874.05;2246145;77;31120;-65
2021/04/24 11:59:03;;;;;;;24.57;14.38;;;;;;;17.67;30.76;100876.92;2233607;78;33239;-65
2021/04/24 12:02:36;;;;;;;31.65;23.47;;;;;;;17.58;30.57;100879.31;2229404;78;28807;-64
2021/04/24 12:05:44;;;;;;;11.38;5.65;;;;;;;17.47;30.84;100871.05;2254517;78;27900;-64
2021/04/24 12:08:46;;;;;;;11.68;5.47;;;;;;;17.34;30.93;100875.59;2254354;78;28806;-64
2021/04/24 12:12:00;;;;;;;8.58;4.87;;;;;;;17.22;31.37;100872.77;2252374;78;31137;-64
2021/04/24 12:15:25;;;;;;;12.47;5.97;;;;;;;17.22;31.73;100874.59;2239217;78;34496;-63
2021/04/24 12:18:30;;;;;;;9.40;4.45;;;;;;;17.28;31.54;100868.76;2237475;78;28868;-63
2021/04/24 12:21:33;;;;;;;15.60;5.28;;;;;;;17.28;32.17;100864.70;2247969;78;27740;-64
2021/04/24 12:24:57;;;;;;;10.63;4.65;;;;;;;17.36;32.07;100864.17;2245753;77;28867;-64
2021/04/24 12:28:03;;;;;;;12.40;5.67;;;;;;;17.35;32.21;100854.30;2227868;77;31144;-70
2021/04/24 12:31:05;;;;;;;12.33;6.83;;;;;;;17.34;31.95;100862.94;2229677;78;33003;-64
2021/04/24 12:34:08;;;;;;;10.78;6.12;;;;;;;17.28;32.21;100857.92;2182240;81;28852;-64
2021/04/24 12:37:13;;;;;;;11.45;5.45;;;;;;;17.29;32.26;100852.39;2193020;80;27851;-62
2021/04/24 12:40:19;;;;;;;12.58;4.90;;;;;;;17.22;32.12;100856.98;2198813;78;28825;-62
2021/04/24 12:43:25;;;;;;;10.30;6.40;;;;;;;17.18;32.24;100851.42;2212015;78;31120;-63
2021/04/24 12:46:30;;;;;;;10.55;5.28;;;;;;;17.17;32.38;100853.25;2205306;80;33104;-62
2021/04/24 12:49:33;;;;;;;9.35;5.47;;;;;;;17.09;32.25;100856.48;2205623;80;28703;-69
2021/04/24 12:52:48;;;;;;;11.90;5.45;;;;;;;17.04;32.68;100853.24;2158161;81;27893;-66
2021/04/24 12:55:51;;;;;;;7.75;5.42;;;;;;;17.00;32.55;100853.91;2159836;81;28825;-67
2021/04/24 12:58:57;;;;;;;8.20;5.58;;;;;;;16.92;32.67;100846.78;2146476;79;31087;-62
2021/04/24 13:02:00;;;;;;;12.13;5.58;;;;;;;16.96;32.54;100856.94;2174082;79;33133;-66
2021/04/24 13:05:06;;;;;;;7.40;4.90;;;;;;;16.94;32.60;100848.91;2180007;81;28867;-65
2021/04/24 13:08:11;;;;;;;9.53;4.80;;;;;;;16.93;32.79;100846.28;2172114;80;27691;-64
2021/04/24 13:11:15;;;;;;;7.78;4.97;;;;;;;16.85;32.73;100810.27;2180350;81;28808;-64
2021/04/24 13:14:24;;;;;;;8.28;4.90;;;;;;;16.99;32.56;100844.56;2182783;81;31951;-65
2021/04/24 13:17:26;;;;;;;11.08;4.80;;;;;;;16.93;32.55;100842.22;2165088;81;33967;-62
2021/04/24 13:24:06;;;;;;;11.00;5.70;;;;;;;16.88;32.37;100841.19;2316855;74;32366;-69
2021/04/24 13:27:08;;;;;;;10.60;4.92;;;;;;;16.70;32.66;100839.25;2277902;75;27789;-73
2021/04/24 13:30:13;;;;;;;13.43;7.37;;;;;;;16.54;32.97;100825.39;2294642;75;29760;-70
2021/04/24 13:33:16;;;;;;;11.80;5.03;;;;;;;16.54;32.97;100825.39;2247888;77;31129;-69
2021/04/24 13:36:19;;;;;;;14.25;6.33;;;;;;;16.51;33.15;100830.12;2272025;75;33058;-69
2021/04/24 13:39:22;;;;;;;12.88;5.53;;;;;;;16.42;33.13;100827.53;2275843;75;29384;-67
2021/04/24 13:42:32;;;;;;;11.68;6.33;;;;;;;16.36;33.30;100827.96;2286383;77;27734;-68
2021/04/24 13:45:35;;;;;;;12.05;5.03;;;;;;;16.33;33.47;100825.45;2281732;77;29285;-71
2021/04/24 13:48:37;;;;;;;15.03;5.37;;;;;;;16.33;33.63;100822.75;2288719;75;31118;-70
2021/04/24 13:51:39;;;;;;;15.35;6.00;;;;;;;16.37;33.92;100821.09;2291684;75;33059;-62
2021/04/24 13:54:43;;;;;;;8.40;4.65;;;;;;;16.43;33.51;100821.66;2284277;75;28912;-63
2021/04/24 13:57:45;;;;;;;9.05;4.25;;;;;;;16.37;33.74;100817.53;2288662;77;27645;-63
2021/04/24 14:00:48;;;;;;;8.95;3.30;;;;;;;16.40;33.35;100817.30;2275741;77;28819;-66
2021/04/24 14:03:50;;;;;;;5.30;3.20;;;;;;;16.38;33.50;100813.36;2290904;75;31024;-64
2021/04/24 14:06:52;;;;;;;7.90;4.05;;;;;;;16.47;33.55;100817.30;2280579;75;33096;-65
2021/04/24 14:09:54;;;;;;;13.90;4.05;;;;;;;16.55;33.57;100816.28;2289524;77;29713;-64
2021/04/24 14:12:57;;;;;;;8.38;4.37;;;;;;;16.61;33.29;100810.97;2281364;75;27737;-62
2021/04/24 14:15:59;;;;;;;11.88;4.33;;;;;;;16.55;33.57;100811.38;2280934;77;28806;-61
2021/04/24 14:19:01;;;;;;;8.58;4.10;;;;;;;16.52;33.23;100814.27;2284687;75;31141;-62